Time;durP1;ratioP1;P1;durP2;ratioP2;P2;SDS_P1;SDS_P2;PMS_P1;PMS_P2;Temp;Humidity;BMP_temperature;BMP_pressure;BME280_temperature;BME280_humidity;BME280_pressure;Samples;Min_cycle;Max_cycle;Signal;HPM_P1;HPM_P2
2023/07/09 00:01:38;;;;;;;0.20;0.20;;;;;;;16.22;100.00;99496.00;4944520;28;20070;-70
2023/07/09 00:04:09;;;;;;;0.20;0.20;;;;;;;16.24;100.00;99511.09;4961010;28;20458;-70
2023/07/09 00:06:36;;;;;;;0.20;0.20;;;;;;;16.24;100.00;99508.34;4954906;28;20062;-70
2023/07/09 00:09:04;;;;;;;0.20;0.20;;;;;;;16.25;100.00;99504.44;4947466;28;20085;-70
2023/07/09 00:11:30;;;;;;;0.20;0.20;;;;;;;16.26;100.00;99502.50;4946213;29;20442;-70
2023/07/09 00:13:56;;;;;;;0.20;0.20;;;;;;;16.28;100.00;99502.97;4949364;28;20078;-69
2023/07/09 00:16:24;;;;;;;0.20;0.20;;;;;;;16.27;100.00;99499.41;4945533;29;20051;-71
2023/07/09 00:18:51;;;;;;;0.20;0.20;;;;;;;16.24;100.00;99494.56;4947516;28;20043;-70
2023/07/09 00:21:21;;;;;;;0.20;0.20;;;;;;;16.19;100.00;99491.91;4945911;28;20061;-69
2023/07/09 00:23:50;;;;;;;0.10;0.10;;;;;;;16.16;100.00;99492.56;4942487;28;20400;-70
2023/07/09 00:26:22;;;;;;;0.20;0.20;;;;;;;16.12;100.00;99483.31;4947408;28;20047;-70
2023/07/09 00:28:49;;;;;;;0.20;0.20;;;;;;;16.07;100.00;99466.91;4944506;28;20055;-70
2023/07/09 00:31:16;;;;;;;0.20;0.20;;;;;;;16.12;100.00;99478.59;4929918;28;20146;-70
2023/07/09 00:33:43;;;;;;;0.20;0.20;;;;;;;16.15;100.00;99482.66;4912868;29;20333;-71
2023/07/09 00:36:14;;;;;;;0.20;0.20;;;;;;;16.19;100.00;99486.41;4941070;28;20569;-70
2023/07/09 00:38:47;;;;;;;0.20;0.20;;;;;;;16.18;100.00;99478.47;4966735;28;20047;-70
2023/07/09 00:41:17;;;;;;;0.20;0.20;;;;;;;16.16;100.00;99478.78;4963267;28;20050;-71
2023/07/09 00:43:45;;;;;;;0.20;0.20;;;;;;;16.16;100.00;99471.34;4948783;28;20055;-70
2023/07/09 00:46:36;;;;;;;0.93;0.30;;;;;;;16.16;100.00;99467.75;4929269;28;20051;-74
2023/07/09 00:49:05;;;;;;;0.30;0.30;;;;;;;16.13;100.00;99468.41;4946821;28;20066;-74
2023/07/09 00:51:33;;;;;;;0.20;0.20;;;;;;;16.09;100.00;99467.41;4946754;28;20126;-73
2023/07/09 00:54:08;;;;;;;0.20;0.20;;;;;;;16.08;100.00;99463.00;4946296;28;20070;-74
2023/07/09 00:56:40;;;;;;;0.20;0.20;;;;;;;16.05;100.00;99458.97;4885484;29;1294284;-74
2023/07/09 00:59:11;;;;;;;0.20;0.20;;;;;;;16.03;100.00;99458.47;4916633;29;20082;-74
2023/07/09 01:01:40;;;;;;;0.20;0.20;;;;;;;16.03;100.00;99452.97;4946957;28;20062;-74
2023/07/09 01:04:08;;;;;;;0.20;0.20;;;;;;;15.96;100.00;99447.09;4945822;28;20138;-74
2023/07/09 01:06:40;;;;;;;0.30;0.30;;;;;;;16.00;100.00;99451.66;4966303;28;20061;-74
2023/07/09 01:09:08;;;;;;;0.20;0.20;;;;;;;16.01;100.00;99456.03;4963911;28;20088;-74
2023/07/09 01:11:34;;;;;;;0.20;0.20;;;;;;;16.05;100.00;99452.63;4961387;28;20058;-74
2023/07/09 01:14:03;;;;;;;0.20;0.20;;;;;;;16.06;100.00;99449.56;4932441;28;20051;-70
2023/07/09 01:16:33;;;;;;;0.20;0.20;;;;;;;16.06;100.00;99451.50;4954226;28;20047;-70
2023/07/09 01:19:00;;;;;;;0.20;0.20;;;;;;;16.12;100.00;99444.72;4949157;28;20403;-70
2023/07/09 01:21:28;;;;;;;0.20;0.20;;;;;;;16.15;100.00;99444.84;4981461;28;20478;-70
2023/07/09 01:23:54;;;;;;;0.20;0.20;;;;;;;16.14;100.00;99442.44;4966258;28;20502;-70
2023/07/09 01:26:27;;;;;;;0.20;0.20;;;;;;;16.13;100.00;99446.34;4964263;28;20518;-70
2023/07/09 01:28:55;;;;;;;0.20;0.20;;;;;;;16.11;100.00;99454.13;4967110;28;20393;-71
2023/07/09 01:31:23;;;;;;;0.20;0.20;;;;;;;16.09;100.00;99446.16;4948226;28;20054;-70
2023/07/09 01:33:49;;;;;;;0.22;0.22;;;;;;;16.09;100.00;99443.41;4966011;28;20060;-70
2023/07/09 01:36:22;;;;;;;0.20;0.20;;;;;;;16.10;100.00;99446.97;4963071;28;20586;-70
2023/07/09 01:38:50;;;;;;;0.20;0.20;;;;;;;16.13;100.00;99447.13;4965181;28;20241;-70
2023/07/09 01:41:17;;;;;;;0.20;0.20;;;;;;;16.14;100.00;99445.19;4963219;28;20529;-70
2023/07/09 01:43:44;;;;;;;0.20;0.20;;;;;;;16.13;100.00;99440.81;4951223;28;20047;-70
2023/07/09 01:46:14;;;;;;;0.20;0.20;;;;;;;16.13;100.00;99446.34;4978151;28;20105;-70
2023/07/09 01:48:41;;;;;;;0.20;0.20;;;;;;;16.13;100.00;99451.84;4964127;28;20566;-69
2023/07/09 01:51:11;;;;;;;0.20;0.20;;;;;;;16.13;100.00;99444.38;4962163;28;20522;-70
2023/07/09 01:53:39;;;;;;;0.30;0.30;;;;;;;16.14;100.00;99450.72;4962270;28;20047;-70
2023/07/09 01:56:09;;;;;;;0.65;0.30;;;;;;;16.15;100.00;99444.84;4962894;28;20062;-70
2023/07/09 01:58:36;;;;;;;0.20;0.20;;;;;;;16.15;100.00;99441.31;4964690;28;20498;-70
2023/07/09 02:01:02;;;;;;;0.20;0.20;;;;;;;16.18;100.00;99437.91;4963294;28;20126;-70
2023/07/09 02:03:28;;;;;;;0.25;0.25;;;;;;;16.22;100.00;99438.06;4963428;28;20546;-70
2023/07/09 02:05:55;;;;;;;0.20;0.20;;;;;;;16.25;100.00;99448.47;4948367;28;20055;-71
2023/07/09 02:08:21;;;;;;;0.20;0.20;;;;;;;16.26;100.00;99444.56;4963923;28;20314;-70
2023/07/09 02:10:49;;;;;;;0.20;0.20;;;;;;;16.28;100.00;99445.88;4965965;28;20055;-71
2023/07/09 02:13:17;;;;;;;;;;;;;;;16.34;100.00;99446.53;4949019;28;20542;-71
2023/07/09 02:15:44;;;;;;;0.20;0.20;;;;;;;16.37;100.00;99443.13;4977071;28;19926;-70
2023/07/09 02:18:10;;;;;;;;;;;;;;;16.44;100.00;99440.69;4961660;28;20097;-70
2023/07/09 02:20:56;;;;;;;0.20;0.20;;;;;;;16.48;100.00;99454.66;4965318;28;19930;-70
2023/07/09 02:23:26;;;;;;;0.20;0.20;;;;;;;16.51;100.00;99442.97;4963493;28;20065;-70
2023/07/09 02:25:52;;;;;;;0.20;0.20;;;;;;;16.55;100.00;99449.50;4977218;28;20065;-70
2023/07/09 02:28:21;;;;;;;0.20;0.20;;;;;;;16.64;100.00;99449.50;4962516;28;20466;-70
2023/07/09 02:30:47;;;;;;;0.20;0.20;;;;;;;16.70;100.00;99450.13;4961374;28;20129;-70
2023/07/09 02:33:13;;;;;;;0.30;0.30;;;;;;;16.72;100.00;99442.34;4946015;28;20065;-70
2023/07/09 02:35:40;;;;;;;0.25;0.25;;;;;;;16.73;100.00;99442.00;4962570;28;20059;-70
2023/07/09 02:38:06;;;;;;;0.30;0.30;;;;;;;16.78;100.00;99452.06;4962834;28;20047;-70
2023/07/09 02:40:33;;;;;;;0.20;0.20;;;;;;;16.86;100.00;99444.94;4946540;28;20047;-73
2023/07/09 02:43:00;;;;;;;0.20;0.20;;;;;;;16.87;100.00;99433.56;4944617;28;20196;-74
2023/07/09 02:45:27;;;;;;;0.30;0.30;;;;;;;16.94;100.00;99437.78;4946084;28;20404;-73
2023/07/09 02:47:53;;;;;;;0.20;0.20;;;;;;;16.95;100.00;99434.69;4945767;28;20043;-73
2023/07/09 02:50:21;;;;;;;0.20;0.20;;;;;;;16.97;100.00;99437.94;4946365;28;20050;-74
2023/07/09 02:52:47;;;;;;;0.30;0.30;;;;;;;16.98;100.00;99441.50;4929025;29;20066;-73
2023/07/09 02:55:13;;;;;;;0.20;0.20;;;;;;;17.01;100.00;99435.34;4947233;28;20061;-73
2023/07/09 02:57:39;;;;;;;0.30;0.30;;;;;;;17.08;100.00;99438.44;4943677;29;20069;-74
2023/07/09 03:00:07;;;;;;;0.20;0.20;;;;;;;17.17;100.00;99445.88;4945699;28;20098;-74
2023/07/09 03:02:35;;;;;;;0.20;0.20;;;;;;;17.22;100.00;99438.25;4944744;28;20078;-73
2023/07/09 03:05:01;;;;;;;0.20;0.20;;;;;;;17.29;99.90;99440.50;4928192;29;20357;-73
2023/07/09 03:07:27;;;;;;;0.20;0.20;;;;;;;17.35;100.00;99446.66;4944595;28;20062;-73
2023/07/09 03:09:54;;;;;;;0.20;0.20;;;;;;;17.37;99.93;99447.97;4948605;28;20578;-73
2023/07/09 03:12:20;;;;;;;0.40;0.30;;;;;;;17.37;99.76;99441.63;4944433;28;20651;-74
2023/07/09 03:14:49;;;;;;;0.30;0.30;;;;;;;17.37;100.00;99438.84;4929532;29;20051;-74
2023/07/09 03:17:15;;;;;;;0.28;0.28;;;;;;;17.42;100.00;99433.16;4947290;28;20526;-74
2023/07/09 03:19:43;;;;;;;0.20;0.20;;;;;;;17.49;98.44;99427.94;4964661;28;20141;-74
2023/07/09 03:22:09;;;;;;;0.20;0.20;;;;;;;17.67;98.59;99427.84;4963622;28;20051;-74
2023/07/09 03:24:36;;;;;;;0.30;0.30;;;;;;;17.83;98.82;99433.66;4945709;28;20051;-74
2023/07/09 03:27:02;;;;;;;0.30;0.30;;;;;;;17.96;98.31;99429.84;4964110;28;20062;-73
2023/07/09 03:29:28;;;;;;;0.20;0.20;;;;;;;18.08;98.99;99420.03;4948324;28;20047;-75
2023/07/09 03:31:55;;;;;;;0.20;0.20;;;;;;;18.18;96.69;99422.41;4960740;28;20118;-74
2023/07/09 03:34:21;;;;;;;0.20;0.20;;;;;;;18.23;96.50;99413.91;4943779;28;20035;-73
2023/07/09 03:36:48;;;;;;;0.30;0.30;;;;;;;18.31;95.78;99422.50;4942198;29;20055;-75
2023/07/09 03:39:15;;;;;;;0.30;0.30;;;;;;;18.41;95.43;99422.91;4929901;29;20130;-73
2023/07/09 03:41:41;;;;;;;0.30;0.30;;;;;;;18.50;95.33;99425.59;4946314;28;20043;-73
2023/07/09 03:44:07;;;;;;;0.30;0.30;;;;;;;18.66;94.17;99436.06;4945601;28;20654;-74
2023/07/09 03:46:33;;;;;;;0.30;0.30;;;;;;;18.80;93.26;99430.25;4931056;28;20054;-72
2023/07/09 03:49:00;;;;;;;0.30;0.30;;;;;;;18.95;92.44;99437.91;4945246;28;20117;-74
2023/07/09 03:51:26;;;;;;;0.30;0.30;;;;;;;19.11;94.08;99429.00;4963312;28;20047;-74
2023/07/09 03:53:54;;;;;;;0.30;0.30;;;;;;;19.23;91.99;99422.72;4963805;28;20051;-73
2023/07/09 03:56:20;;;;;;;0.30;0.30;;;;;;;19.28;90.72;99419.72;4963118;28;20098;-74
2023/07/09 03:58:46;;;;;;;0.30;0.30;;;;;;;19.37;90.96;99416.84;4964966;28;20051;-74
2023/07/09 04:01:13;;;;;;;0.30;0.30;;;;;;;19.47;89.68;99416.41;4961325;28;20054;-74
2023/07/09 04:03:39;;;;;;;0.30;0.30;;;;;;;19.65;90.26;99407.88;4963123;28;20042;-74
2023/07/09 04:06:05;;;;;;;0.30;0.30;;;;;;;19.82;89.37;99410.41;4968254;28;20055;-74
2023/07/09 04:08:31;;;;;;;0.30;0.30;;;;;;;19.93;87.94;99404.44;4964231;28;20141;-74
2023/07/09 04:11:02;;;;;;;0.30;0.30;;;;;;;20.01;88.26;99411.00;4945436;28;20046;-74
2023/07/09 04:13:29;;;;;;;0.30;0.30;;;;;;;20.07;88.27;99413.22;4945086;28;20059;-74
2023/07/09 04:15:55;;;;;;;0.30;0.30;;;;;;;20.10;87.87;99406.97;4948581;28;20050;-74
2023/07/09 04:18:21;;;;;;;0.30;0.30;;;;;;;20.13;87.37;99405.44;4948416;28;20047;-74
2023/07/09 04:20:49;;;;;;;0.30;0.30;;;;;;;20.17;86.76;99400.00;4948571;29;20058;-74
2023/07/09 04:23:15;;;;;;;0.30;0.30;;;;;;;20.30;87.51;99412.69;4948297;28;20137;-74
2023/07/09 04:25:42;;;;;;;0.30;0.30;;;;;;;20.36;84.95;99411.28;4930326;28;20047;-74
2023/07/09 04:28:09;;;;;;;0.30;0.30;;;;;;;20.44;85.82;99403.19;4932377;28;20082;-74
2023/07/09 04:30:36;;;;;;;0.30;0.30;;;;;;;20.50;85.70;99402.59;4946068;28;20877;-74
2023/07/09 04:33:02;;;;;;;0.30;0.30;;;;;;;20.63;84.60;99413.66;4947641;28;20055;-73
2023/07/09 04:35:29;;;;;;;0.20;0.20;;;;;;;20.78;84.78;99407.34;4949253;28;20130;-76
2023/07/09 04:37:55;;;;;;;0.22;0.22;;;;;;;20.89;84.87;99392.97;4929914;28;20057;-75
2023/07/09 04:40:21;;;;;;;0.20;0.20;;;;;;;21.00;83.37;99401.63;4929865;29;20083;-74
2023/07/09 04:42:47;;;;;;;0.30;0.30;;;;;;;21.12;82.07;99395.97;4958067;28;20054;-74
2023/07/09 04:45:15;;;;;;;0.30;0.30;;;;;;;21.13;80.67;99391.22;4969148;28;20105;-74
2023/07/09 04:47:41;;;;;;;0.30;0.30;;;;;;;21.11;81.59;99392.41;4952649;28;20054;-74
2023/07/09 04:50:10;;;;;;;0.30;0.30;;;;;;;21.11;80.12;99389.63;4948405;28;20142;-75
2023/07/09 04:52:37;;;;;;;0.30;0.30;;;;;;;21.12;78.68;99387.63;4943677;28;20067;-75
2023/07/09 04:55:04;;;;;;;0.30;0.30;;;;;;;21.11;77.78;99384.06;4943624;28;20055;-74
2023/07/09 04:57:30;;;;;;;0.30;0.30;;;;;;;21.15;77.75;99381.38;4945589;28;20113;-74
2023/07/09 04:59:59;;;;;;;0.30;0.30;;;;;;;21.19;77.68;99389.78;4929857;28;20051;-73
2023/07/09 05:02:27;;;;;;;0.30;0.30;;;;;;;21.25;77.99;99377.28;4947213;28;20055;-74
2023/07/09 05:04:53;;;;;;;0.30;0.30;;;;;;;21.30;76.92;99377.00;4963535;28;20047;-75
2023/07/09 05:07:19;;;;;;;0.30;0.30;;;;;;;21.37;78.66;99379.94;4951701;28;20141;-75
2023/07/09 05:09:47;;;;;;;0.30;0.30;;;;;;;21.44;76.08;99382.09;4945172;29;20047;-75
2023/07/09 05:12:13;;;;;;;0.28;0.28;;;;;;;21.47;76.81;99383.34;4932779;29;20138;-75
2023/07/09 05:14:39;;;;;;;0.30;0.30;;;;;;;21.44;75.72;99379.31;4935683;28;20149;-75
2023/07/09 05:17:06;;;;;;;0.30;0.30;;;;;;;21.39;73.97;99376.81;4964905;28;20080;-75
2023/07/09 05:19:35;;;;;;;0.30;0.30;;;;;;;21.40;74.27;99372.88;4966078;28;20043;-75
2023/07/09 05:22:01;;;;;;;0.30;0.30;;;;;;;21.39;74.63;99374.03;4976175;28;20054;-75
2023/07/09 05:24:27;;;;;;;0.30;0.30;;;;;;;21.44;72.91;99373.75;4963477;28;20086;-75
2023/07/09 05:26:55;;;;;;;0.30;0.30;;;;;;;21.57;72.86;99368.91;4964315;28;20051;-74
2023/07/09 05:29:22;;;;;;;0.30;0.30;;;;;;;21.65;72.86;99375.47;4962958;28;20098;-74
2023/07/09 05:31:48;;;;;;;0.30;0.30;;;;;;;21.60;68.92;99370.97;4964015;28;20502;-74
2023/07/09 05:34:14;;;;;;;0.30;0.30;;;;;;;21.57;71.62;99373.66;4965245;28;20545;-74
2023/07/09 05:36:42;;;;;;;0.30;0.30;;;;;;;21.54;68.72;99369.63;4965678;28;20050;-74
2023/07/09 05:39:08;;;;;;;0.30;0.30;;;;;;;21.59;69.05;99372.16;4979532;28;20057;-74
2023/07/09 05:41:34;;;;;;;0.30;0.30;;;;;;;21.64;67.55;99374.66;4965287;28;20078;-71
2023/07/09 05:44:01;;;;;;;0.30;0.30;;;;;;;21.65;68.55;99376.28;4965764;28;20113;-71
2023/07/09 05:46:27;;;;;;;0.30;0.30;;;;;;;21.65;67.67;99376.28;4945505;28;20046;-70
2023/07/09 05:48:53;;;;;;;0.30;0.30;;;;;;;21.71;68.81;99373.25;4965336;28;20475;-70
2023/07/09 05:51:21;;;;;;;0.30;0.30;;;;;;;21.78;69.51;99365.06;4962568;28;20141;-71
2023/07/09 05:53:48;;;;;;;0.30;0.30;;;;;;;21.83;69.66;99367.56;4967922;28;20059;-70
2023/07/09 05:56:15;;;;;;;0.30;0.30;;;;;;;21.87;68.90;99357.34;4963404;28;20121;-74
2023/07/09 05:58:41;;;;;;;0.30;0.30;;;;;;;21.95;69.71;99361.88;4951458;28;20043;-74
2023/07/09 06:01:07;;;;;;;0.30;0.30;;;;;;;22.02;68.62;99361.25;4959465;28;20477;-74
2023/07/09 06:03:34;;;;;;;0.30;0.30;;;;;;;22.08;66.49;99359.78;4945593;28;20058;-74
2023/07/09 06:06:00;;;;;;;0.30;0.30;;;;;;;22.08;65.56;99364.53;4948158;29;20565;-74
2023/07/09 06:08:26;;;;;;;0.30;0.30;;;;;;;22.15;66.38;99364.69;4947966;28;20047;-74
2023/07/09 06:10:57;;;;;;;0.23;0.23;;;;;;;22.28;67.05;99356.22;4946924;28;20745;-74
2023/07/09 06:13:23;;;;;;;0.30;0.30;;;;;;;22.43;67.45;99360.91;4963784;28;20514;-74
2023/07/09 06:15:51;;;;;;;0.30;0.30;;;;;;;22.60;68.28;99364.47;4963449;28;20142;-75
2023/07/09 06:18:17;;;;;;;0.28;0.28;;;;;;;22.65;65.25;99364.19;4963676;28;20134;-74
2023/07/09 06:20:47;;;;;;;0.30;0.30;;;;;;;22.71;65.88;99354.34;4964904;28;20141;-74
2023/07/09 06:23:13;;;;;;;0.30;0.30;;;;;;;22.72;63.36;99352.38;4964174;28;20082;-74
2023/07/09 06:25:40;;;;;;;0.30;0.30;;;;;;;22.60;64.10;99350.53;4962675;28;20144;-74
2023/07/09 06:28:08;;;;;;;0.30;0.30;;;;;;;22.70;63.21;99355.50;4964197;28;20051;-74
2023/07/09 06:30:36;;;;;;;0.30;0.30;;;;;;;22.93;62.17;99351.94;4963627;28;20047;-74
2023/07/09 06:33:03;;;;;;;0.30;0.30;;;;;;;23.19;62.52;99351.25;4948064;28;20445;-73
2023/07/09 06:35:29;;;;;;;0.30;0.30;;;;;;;23.50;61.59;99348.59;4961181;28;20046;-75
2023/07/09 06:37:55;;;;;;;0.30;0.30;;;;;;;23.75;62.54;99348.97;4962188;28;20050;-75
2023/07/09 06:40:23;;;;;;;0.30;0.30;;;;;;;24.15;62.05;99345.97;4963875;28;20047;-74
2023/07/09 06:42:49;;;;;;;0.30;0.30;;;;;;;24.35;58.21;99339.06;4967800;28;20119;-73
2023/07/09 06:45:27;;;;;;;0.30;0.30;;;;;;;24.60;59.53;99341.34;4964035;28;20573;-74
2023/07/09 06:47:53;;;;;;;0.30;0.30;;;;;;;24.46;58.67;99341.19;4968544;28;20522;-74
2023/07/09 06:50:20;;;;;;;0.30;0.30;;;;;;;24.19;58.94;99335.66;4979956;28;20145;-73
2023/07/09 06:52:46;;;;;;;0.30;0.30;;;;;;;24.04;58.45;99335.47;4963650;28;20066;-73
2023/07/09 06:55:13;;;;;;;0.30;0.30;;;;;;;23.65;55.77;99330.88;4963920;28;20190;-75
2023/07/09 06:57:39;;;;;;;0.20;0.20;;;;;;;23.14;55.93;99328.44;4966388;28;20054;-74
2023/07/09 07:00:07;;;;;;;0.30;0.30;;;;;;;22.98;53.60;99334.13;4944909;28;20057;-74
2023/07/09 07:02:35;;;;;;;0.40;0.40;;;;;;;23.16;51.78;99331.66;4946418;28;20054;-69
2023/07/09 07:05:01;;;;;;;0.35;0.35;;;;;;;23.49;51.48;99331.06;4937667;28;20053;-70
2023/07/09 07:07:28;;;;;;;0.22;0.22;;;;;;;23.44;48.39;99317.41;4946061;28;20051;-72
2023/07/09 07:09:54;;;;;;;0.30;0.30;;;;;;;23.12;46.40;99312.06;4947024;28;20348;-71
2023/07/09 07:12:25;;;;;;;0.30;0.30;;;;;;;22.79;45.13;99319.06;4944171;29;20075;-71
2023/07/09 07:14:51;;;;;;;0.30;0.30;;;;;;;22.69;44.41;99316.88;4946723;28;20074;-71
2023/07/09 07:17:18;;;;;;;0.32;0.30;;;;;;;22.64;44.01;99320.78;4938287;28;20058;-71
2023/07/09 07:19:45;;;;;;;;;;;;;;;22.94;45.04;99322.91;4944920;28;20075;-70
2023/07/09 07:22:12;;;;;;;0.30;0.30;;;;;;;23.29;43.21;99313.59;4976507;28;19926;-71
2023/07/09 07:24:38;;;;;;;0.30;0.30;;;;;;;23.28;43.31;99314.78;4944773;28;20142;-71
2023/07/09 07:27:05;;;;;;;0.28;0.28;;;;;;;23.07;42.95;99310.41;4945528;28;20051;-74
2023/07/09 07:29:31;;;;;;;;;;;;;;;22.92;43.59;99320.50;4946983;28;20094;-74
2023/07/09 07:31:57;;;;;;;0.40;0.40;;;;;;;23.26;42.53;99314.34;4964803;28;19926;-74
2023/07/09 07:34:24;;;;;;;0.30;0.30;;;;;;;23.86;41.12;99304.47;4931892;28;20167;-71
2023/07/09 07:36:51;;;;;;;0.32;0.32;;;;;;;24.36;39.44;99306.34;4962443;28;20439;-74
2023/07/09 07:39:17;;;;;;;0.40;0.40;;;;;;;24.74;38.08;99314.72;4944878;28;20058;-74
2023/07/09 07:41:44;;;;;;;0.30;0.30;;;;;;;25.02;38.48;99310.63;4959420;28;20051;-71
2023/07/09 07:44:10;;;;;;;0.40;0.40;;;;;;;25.44;37.40;99306.59;4946893;28;20121;-70
2023/07/09 07:46:36;;;;;;;0.40;0.40;;;;;;;25.86;36.77;99307.28;4961034;28;20142;-70
2023/07/09 07:49:02;;;;;;;0.40;0.40;;;;;;;26.14;36.67;99299.44;4953762;28;20134;-70
2023/07/09 07:51:28;;;;;;;0.40;0.40;;;;;;;26.33;35.73;99282.34;4946165;28;20061;-70
2023/07/09 07:53:56;;;;;;;0.40;0.40;;;;;;;26.02;35.71;99300.56;4965912;28;20043;-70
2023/07/09 07:56:23;;;;;;;0.40;0.40;;;;;;;25.90;36.13;99294.13;4949334;28;20059;-70
2023/07/09 07:58:49;;;;;;;0.50;0.50;;;;;;;26.29;35.42;99300.34;4967457;28;20276;-70
2023/07/09 08:01:15;;;;;;;0.50;0.50;;;;;;;26.70;34.39;99291.66;4968040;28;20050;-71
2023/07/09 08:03:41;;;;;;;0.50;0.50;;;;;;;26.80;33.49;99295.66;4968677;28;20051;-71
2023/07/09 08:06:07;;;;;;;0.50;0.50;;;;;;;26.88;33.74;99297.31;4965050;28;20055;-70
2023/07/09 08:08:33;;;;;;;0.50;0.50;;;;;;;27.00;33.72;99290.50;4950493;28;20105;-71
2023/07/09 08:11:04;;;;;;;0.53;0.53;;;;;;;27.23;33.56;99280.91;4967432;28;20051;-71
2023/07/09 08:13:32;;;;;;;0.50;0.50;;;;;;;27.21;32.20;99279.69;4950201;28;20130;-71
2023/07/09 08:15:58;;;;;;;0.50;0.50;;;;;;;27.15;32.97;99271.69;4961860;28;20114;-71
2023/07/09 08:18:24;;;;;;;0.30;0.30;;;;;;;26.68;33.58;99274.41;4965735;28;20058;-71
2023/07/09 08:20:50;;;;;;;0.60;0.60;;;;;;;25.96;34.84;99280.53;4965061;28;20061;-71
2023/07/09 08:23:16;;;;;;;0.40;0.40;;;;;;;26.44;34.40;99273.97;4965644;28;20054;-74
2023/07/09 08:25:43;;;;;;;0.50;0.50;;;;;;;27.17;33.58;99283.28;4936451;28;20544;-73
2023/07/09 08:28:10;;;;;;;0.50;0.50;;;;;;;28.21;31.97;99266.69;4969681;28;20047;-74
2023/07/09 08:30:37;;;;;;;0.50;0.50;;;;;;;28.52;30.36;99280.97;5027664;22;20060;-74
2023/07/09 08:33:03;;;;;;;0.50;0.50;;;;;;;28.70;30.48;99272.41;5021196;28;20119;-75
2023/07/09 08:35:29;;;;;;;0.40;0.40;;;;;;;28.87;29.86;99269.91;5010392;28;20046;-73
2023/07/09 08:37:55;;;;;;;0.30;0.30;;;;;;;28.10;31.13;99268.69;5006027;28;20137;-74
2023/07/09 08:40:21;;;;;;;0.30;0.30;;;;;;;27.64;31.11;99257.22;5006934;28;20045;-70
2023/07/09 08:42:57;;;;;;;0.30;0.30;;;;;;;26.59;32.58;99257.97;5011016;28;20080;-70
2023/07/09 08:45:34;;;;;;;0.30;0.30;;;;;;;25.43;34.51;99251.03;4996979;28;20046;-69
2023/07/09 08:48:07;;;;;;;0.52;0.52;;;;;;;25.74;34.61;99257.22;5015659;28;20084;-70
2023/07/09 08:50:38;;;;;;;0.50;0.50;;;;;;;26.84;32.95;99256.41;5017879;28;20042;-71
2023/07/09 08:53:09;;;;;;;0.50;0.50;;;;;;;27.83;30.83;99244.72;5011568;28;20424;-70
2023/07/09 08:55:40;;;;;;;0.60;0.60;;;;;;;28.56;28.51;99245.19;5002062;28;20045;-74
2023/07/09 08:58:14;;;;;;;0.50;0.50;;;;;;;28.77;28.32;99246.25;5017815;28;20045;-74
2023/07/09 09:00:49;;;;;;;0.60;0.60;;;;;;;29.21;28.08;99243.09;5005108;28;20038;-75
2023/07/09 09:03:27;;;;;;;0.60;0.60;;;;;;;29.18;27.95;99238.31;5017152;28;20062;-74
2023/07/09 09:05:54;;;;;;;0.60;0.60;;;;;;;29.15;28.41;99229.50;5017385;28;20180;-74
2023/07/09 09:08:33;;;;;;;0.60;0.60;;;;;;;29.77;28.23;99233.72;5032592;28;20064;-74
2023/07/09 09:11:08;;;;;;;0.60;0.60;;;;;;;30.36;27.48;99226.94;4997507;28;20065;-74
2023/07/09 09:13:38;;;;;;;0.60;0.60;;;;;;;30.57;26.51;99222.19;5013020;28;20040;-74
2023/07/09 09:16:13;;;;;;;0.60;0.60;;;;;;;30.12;27.14;99226.06;5012991;28;20127;-73
2023/07/09 09:18:42;;;;;;;0.68;0.68;;;;;;;29.96;26.83;99213.34;5028049;28;20045;-74
2023/07/09 09:21:17;;;;;;;0.60;0.60;;;;;;;29.90;26.96;99217.06;5011738;28;20128;-74
2023/07/09 09:23:48;;;;;;;0.60;0.60;;;;;;;29.84;26.31;99209.09;4997909;28;20452;-74
2023/07/09 09:26:18;;;;;;;0.70;0.70;;;;;;;29.78;26.51;99210.75;5016658;28;20052;-73
2023/07/09 09:28:44;;;;;;;0.70;0.70;;;;;;;29.59;27.38;99206.56;5009899;28;20050;-70
2023/07/09 09:31:13;;;;;;;0.70;0.70;;;;;;;29.79;27.41;99203.13;4985986;28;20050;-70
2023/07/09 09:33:44;;;;;;;0.70;0.70;;;;;;;30.09;25.62;99207.19;5002618;28;20038;-70
2023/07/09 09:36:15;;;;;;;0.65;0.65;;;;;;;30.29;25.45;99201.69;5005702;28;20119;-70
2023/07/09 09:38:43;;;;;;;0.70;0.70;;;;;;;29.98;24.81;99196.81;5024277;28;20079;-70
2023/07/09 09:41:14;;;;;;;0.80;0.80;;;;;;;29.85;25.54;99196.59;5019430;28;20048;-71
2023/07/09 09:43:42;;;;;;;0.70;0.70;;;;;;;30.12;26.04;99190.22;5015707;28;20050;-69
2023/07/09 09:46:16;;;;;;;0.70;0.70;;;;;;;30.64;25.52;99195.94;5013126;28;20508;-71
2023/07/09 09:48:46;;;;;;;0.75;0.75;;;;;;;30.51;25.16;99192.91;5009524;28;20375;-71
2023/07/09 09:51:14;;;;;;;0.80;0.80;;;;;;;30.35;25.63;99190.69;5019229;28;20528;-71
2023/07/09 09:53:45;;;;;;;0.70;0.70;;;;;;;30.87;24.43;99180.25;5031611;28;20151;-70
2023/07/09 09:56:15;;;;;;;0.40;0.40;;;;;;;30.87;29.27;99171.81;5016836;28;20093;-70
2023/07/09 09:58:41;;;;;;;0.40;0.40;;;;;;;29.22;29.80;99179.97;4996484;28;20517;-70
2023/07/09 10:01:15;;;;;;;0.35;0.35;;;;;;;27.62;31.74;99186.63;5013315;28;20144;-72
2023/07/09 10:03:44;;;;;;;0.40;0.40;;;;;;;26.67;32.25;99179.50;5021578;28;20053;-73
2023/07/09 10:06:16;;;;;;;0.65;0.65;;;;;;;26.38;34.80;99188.69;5027362;28;20038;-73
2023/07/09 10:08:55;;;;;;;0.60;0.60;;;;;;;27.36;32.46;99179.47;5009801;28;20045;-72
2023/07/09 10:11:38;;;;;;;0.50;0.50;;;;;;;28.80;33.01;99177.97;4980933;28;20037;-73
2023/07/09 10:14:19;;;;;;;0.40;0.40;;;;;;;28.68;33.07;99178.44;5013544;28;20155;-73
2023/07/09 10:16:51;;;;;;;0.40;0.40;;;;;;;27.74;32.12;99174.16;5010317;28;20417;-72
2023/07/09 10:19:24;;;;;;;0.40;0.40;;;;;;;26.99;32.65;99165.50;5013218;28;20580;-73
2023/07/09 10:21:59;;;;;;;0.43;0.43;;;;;;;26.64;32.77;99175.50;5006075;28;20064;-73
2023/07/09 10:24:37;;;;;;;0.50;0.50;;;;;;;27.54;32.91;99165.41;5019804;28;20054;-73
2023/07/09 10:27:11;;;;;;;0.60;0.60;;;;;;;28.80;31.76;99166.72;5018871;28;20049;-73
2023/07/09 10:29:48;;;;;;;0.60;0.60;;;;;;;29.85;30.58;99165.59;5018118;28;20078;-73
2023/07/09 10:32:27;;;;;;;0.50;0.50;;;;;;;30.69;29.43;99170.09;5029804;28;20127;-74
2023/07/09 10:35:01;;;;;;;0.40;0.40;;;;;;;30.67;27.46;99156.41;5029792;28;20045;-73
2023/07/09 10:37:53;;;;;;;0.40;0.40;;;;;;;29.57;30.17;99159.13;5033720;28;20077;-73
2023/07/09 10:40:28;;;;;;;0.40;0.40;;;;;;;28.41;30.22;99159.38;5013930;28;20068;-74
2023/07/09 10:42:58;;;;;;;0.30;0.30;;;;;;;27.40;31.61;99155.81;5013180;28;20115;-74
2023/07/09 10:45:30;;;;;;;0.40;0.40;;;;;;;26.91;32.61;99158.31;5012835;28;20246;-74
2023/07/09 10:48:02;;;;;;;0.40;0.40;;;;;;;26.95;33.15;99152.72;5004219;28;20038;-74
2023/07/09 10:50:35;;;;;;;0.40;0.40;;;;;;;26.99;32.53;99151.47;5016311;28;20483;-74
2023/07/09 10:53:09;;;;;;;0.40;0.40;;;;;;;27.11;32.66;99147.47;5007540;28;20041;-73
2023/07/09 10:55:43;;;;;;;0.77;0.77;;;;;;;28.03;31.55;99146.75;5006881;28;20758;-73
2023/07/09 10:58:24;;;;;;;0.70;0.70;;;;;;;29.36;29.20;99146.06;5000966;28;20037;-74
2023/07/09 11:00:51;;;;;;;0.70;0.70;;;;;;;30.09;29.02;99145.97;5003866;28;20048;-73
2023/07/09 11:03:21;;;;;;;0.80;0.80;;;;;;;30.57;27.18;99143.22;5011131;28;20535;-74
2023/07/09 11:05:50;;;;;;;0.70;0.70;;;;;;;30.80;27.89;99136.03;5021312;28;20045;-69
2023/07/09 11:08:21;;;;;;;0.70;0.70;;;;;;;31.00;26.26;99141.75;5012363;28;20140;-70
2023/07/09 11:10:52;;;;;;;0.60;0.60;;;;;;;31.06;27.12;99142.00;4998414;28;20571;-70
2023/07/09 11:13:25;;;;;;;0.55;0.55;;;;;;;30.48;27.90;99143.78;5016043;28;20720;-71
2023/07/09 11:15:54;;;;;;;0.60;0.60;;;;;;;29.63;28.92;99136.94;5014871;28;20048;-70
2023/07/09 11:18:22;;;;;;;0.60;0.60;;;;;;;29.19;29.47;99130.16;5010096;28;20049;-70
2023/07/09 11:20:58;;;;;;;0.60;0.60;;;;;;;29.22;28.98;99132.94;5013282;28;20156;-70
2023/07/09 11:23:25;;;;;;;0.70;0.70;;;;;;;29.45;29.03;99137.13;4998741;28;20504;-70
2023/07/09 11:26:02;;;;;;;0.70;0.70;;;;;;;29.76;28.18;99127.91;5001691;28;20041;-69
2023/07/09 11:28:34;;;;;;;0.70;0.70;;;;;;;30.10;27.72;99124.25;5003879;28;20050;-70
2023/07/09 11:31:07;;;;;;;0.60;0.60;;;;;;;29.85;27.89;99136.63;5018250;28;20062;-69
2023/07/09 11:33:44;;;;;;;0.70;0.70;;;;;;;29.87;28.31;99139.81;5020347;28;20045;-70
2023/07/09 11:36:15;;;;;;;0.60;0.60;;;;;;;30.22;28.35;99129.31;5018837;28;20041;-70
2023/07/09 11:38:43;;;;;;;0.50;0.50;;;;;;;30.10;28.44;99136.31;5033507;28;20037;-70